Accueil
METAR-TAF:

METAR-TAF

Aéroports :

Aéroport international de Nouméa - La Tontouta

Nouméa / La Tontouta, Nouvelle-Calédonie

latitude: 22-01S, longitude: 166-13E, altitude: 16 m

Observation

Le bulletin a été fait il y a 19 minutes, à 05:00 UTC
Vent 14 kt de ouest
Température 31°C
Humidité 63%
Pression 1005 hPa
Visibilité 10 km ou plus
Quelques nuages à une hauteur de 6400 ft

METAR: NWWW 230500Z AUTO 26014KT 9999 FEW064 31/23 Q1005 TEMPO 4000 SHRA FEW018TCU

Heure: 16:19 (05:19 UTC)

Prévision

Le bulletin a été fait il y a 45 minutes, à 04:34 UTC
Prévision valable du 23 à 04 UTC au 23 à 24 UTC
Vent 12 kt de ouest/sud-ouest
Visibilité 10 km ou plus
Nuages épars à une hauteur de 3000 ft
Probabilité 40% :
Temporairement
du 23 à 04 UTC au 23 à 07 UTC
Visibilité: 4000 m
Quelques nuages à une hauteur de 1800 ft, Cumulus congestus.
averses de pluie

TAF: NWWW 230434Z 2304/2324 25012KT 9999 SCT030 PROB40 TEMPO 2304/2307 4000 SHRA FEW018TCU

Observations et prévisions météorologiques de plus de 4000 aéroports (messages METAR et TAF).

Les stations disponibles sont représentées par des disques jaunes et rouges sur la carte.

Passer la souris dessus pour voir le nom de la station.

Cliquer dessus pour voir les observations et prévisions météorologiques.

Pour changer de carte: cliquez sur les boutons verts avec une croix noire pour zoomer, sur le bouton vert avec un tiret pour effectuer un zoom arrière, ou sur les flèches vertes pour les cartes adjacentes.


METAR-TAF: